createdAt,value
2023-02-15T00:00:12.716Z,4.60
2023-02-15T00:02:41.479Z,4.40
2023-02-15T00:05:09.897Z,5.40
2023-02-15T00:07:38.068Z,4.30
2023-02-15T00:10:07.197Z,5.20
2023-02-15T00:12:36.134Z,4.50
2023-02-15T00:15:04.787Z,4.90
2023-02-15T00:17:33.169Z,4.90
2023-02-15T00:20:01.388Z,4.10
2023-02-15T00:22:31.279Z,5.60
2023-02-15T00:24:59.488Z,4.30
2023-02-15T00:27:27.938Z,3.30
2023-02-15T00:30:01.230Z,3.40
2023-02-15T00:32:29.545Z,4.20
2023-02-15T00:34:57.866Z,3.70
2023-02-15T00:37:26.372Z,4.20
2023-02-15T00:39:54.446Z,3.60
2023-02-15T00:42:22.581Z,3.10
2023-02-15T00:44:50.983Z,3.00
2023-02-15T00:50:23.730Z,3.10
2023-02-15T00:52:52.751Z,2.30
2023-02-15T00:55:22.111Z,3.10
2023-02-15T00:57:51.219Z,2.30
2023-02-15T01:00:19.778Z,2.00
2023-02-15T01:02:47.953Z,2.70
2023-02-15T01:05:16.326Z,2.40
2023-02-15T01:07:45.498Z,2.00
2023-02-15T01:10:13.682Z,1.70
2023-02-15T01:12:45.026Z,2.40
2023-02-15T01:15:13.281Z,2.00
2023-02-15T01:17:42.089Z,3.00
2023-02-15T01:20:10.495Z,2.90
2023-02-15T01:22:39.537Z,1.80
2023-02-15T01:25:11.370Z,1.90
2023-02-15T01:27:39.824Z,4.00
2023-02-15T01:30:12.643Z,2.30
2023-02-15T01:32:41.274Z,3.60
2023-02-15T01:35:11.631Z,2.70
2023-02-15T01:37:40.190Z,1.90
2023-02-15T01:40:10.615Z,3.20
2023-02-15T01:42:39.262Z,2.10
2023-02-15T01:45:24.926Z,4.30
2023-02-15T01:48:00.793Z,2.50
2023-02-15T01:50:36.199Z,3.90
2023-02-15T01:53:41.161Z,2.90
2023-02-15T01:56:16.409Z,2.20
2023-02-15T02:01:14.681Z,2.70
2023-02-15T02:04:03.656Z,3.80
2023-02-15T02:06:33.079Z,3.00
2023-02-15T02:09:02.769Z,3.70
2023-02-15T02:11:35.429Z,2.20
2023-02-15T02:14:03.696Z,3.70
2023-02-15T02:16:50.216Z,2.90
2023-02-15T02:19:35.731Z,2.50
2023-02-15T02:22:15.756Z,2.70
2023-02-15T02:25:23.314Z,2.40
2023-02-15T02:28:22.476Z,2.90
2023-02-15T02:30:57.774Z,2.40
2023-02-15T02:33:30.915Z,2.60
2023-02-15T02:36:19.133Z,2.50
2023-02-15T02:39:14.848Z,1.50
2023-02-15T02:41:50.419Z,1.90
2023-02-15T02:44:23.409Z,3.10
2023-02-15T02:46:54.984Z,1.80
2023-02-15T02:49:37.089Z,2.40
2023-02-15T02:52:07.874Z,2.80
2023-02-15T02:54:38.223Z,3.00
2023-02-15T02:57:07.641Z,3.50
2023-02-15T02:59:39.930Z,3.70
2023-02-15T03:02:30.514Z,2.00
2023-02-15T03:05:04.971Z,3.30
2023-02-15T03:07:33.616Z,1.90
2023-02-15T03:10:03.991Z,2.50
2023-02-15T03:12:34.745Z,2.60
2023-02-15T03:17:53.890Z,2.20
2023-02-15T03:20:26.547Z,1.90
2023-02-15T03:23:01.156Z,3.20
2023-02-15T03:25:37.477Z,4.40
2023-02-15T03:28:08.695Z,2.50
2023-02-15T03:30:37.548Z,3.40
2023-02-15T03:33:06.014Z,3.50
2023-02-15T03:36:02.598Z,2.20
2023-02-15T03:38:37.580Z,2.80
2023-02-15T03:41:11.851Z,3.10
2023-02-15T03:49:11.227Z,3.30
2023-02-15T03:51:40.761Z,2.10
2023-02-15T03:54:15.206Z,3.00
2023-02-15T03:57:04.151Z,2.40
2023-02-15T03:59:51.736Z,2.40
2023-02-15T04:02:22.972Z,2.30
2023-02-15T04:04:51.095Z,2.40
2023-02-15T04:07:19.671Z,2.70
2023-02-15T04:10:06.393Z,3.50
2023-02-15T04:12:34.758Z,3.00
2023-02-15T04:15:22.537Z,2.90
2023-02-15T04:17:50.612Z,2.80
2023-02-15T04:20:37.403Z,1.80
2023-02-15T04:23:26.153Z,3.60
2023-02-15T04:25:54.294Z,2.50
2023-02-15T04:28:22.416Z,2.20
2023-02-15T04:30:50.812Z,1.90
2023-02-15T04:33:19.867Z,3.60
2023-02-15T04:35:48.003Z,3.00
2023-02-15T04:38:18.560Z,2.70
2023-02-15T04:40:51.851Z,2.80
2023-02-15T04:43:20.480Z,2.50
2023-02-15T04:45:51.478Z,5.20
2023-02-15T04:48:19.730Z,5.80
2023-02-15T04:50:47.945Z,4.30
2023-02-15T04:53:17.768Z,4.70
2023-02-15T04:55:46.354Z,5.20
2023-02-15T04:58:14.592Z,3.20
2023-02-15T05:00:43.171Z,4.10
2023-02-15T05:03:11.365Z,2.70
2023-02-15T05:05:39.937Z,3.60
2023-02-15T05:08:08.809Z,3.80
2023-02-15T05:10:37.489Z,3.10
2023-02-15T05:13:05.664Z,2.80
2023-02-15T05:15:37.535Z,3.60
2023-02-15T05:18:07.556Z,3.90
2023-02-15T05:20:35.692Z,3.70
2023-02-15T05:23:04.114Z,2.70
2023-02-15T05:25:51.012Z,3.80
2023-02-15T05:28:22.600Z,6.90
2023-02-15T05:30:52.116Z,5.10
2023-02-15T05:33:20.983Z,5.10
2023-02-15T05:35:49.925Z,2.80
2023-02-15T05:38:18.578Z,3.60
2023-02-15T05:40:47.429Z,6.00
2023-02-15T05:43:16.956Z,5.00
2023-02-15T05:45:47.316Z,3.20
2023-02-15T05:48:16.373Z,4.50
2023-02-15T05:50:45.176Z,5.10
2023-02-15T05:53:13.794Z,4.60
2023-02-15T05:55:42.456Z,5.30
2023-02-15T05:58:10.774Z,3.70
2023-02-15T06:00:39.190Z,4.10
2023-02-15T06:03:07.355Z,4.40
2023-02-15T06:05:36.664Z,3.40
2023-02-15T06:08:06.043Z,6.40
2023-02-15T06:10:34.699Z,6.10
2023-02-15T06:13:03.562Z,3.80
2023-02-15T06:15:32.232Z,4.10
2023-02-15T06:18:00.724Z,4.80
2023-02-15T06:20:28.934Z,5.50
2023-02-15T06:22:57.346Z,4.60
2023-02-15T06:25:25.827Z,3.50
2023-02-15T06:27:54.247Z,3.80
2023-02-15T06:30:22.754Z,5.40
2023-02-15T06:32:52.216Z,3.90
2023-02-15T06:35:20.505Z,4.10
2023-02-15T06:37:50.511Z,8.70
2023-02-15T06:40:19.087Z,4.40
2023-02-15T06:42:47.197Z,3.80
2023-02-15T06:45:15.551Z,4.50
2023-02-15T06:47:43.845Z,4.50
2023-02-15T06:50:12.549Z,3.80
2023-02-15T06:52:40.661Z,5.20
2023-02-15T06:55:09.001Z,4.10
2023-02-15T06:57:37.117Z,2.70
2023-02-15T07:00:07.173Z,3.90
2023-02-15T07:02:35.781Z,5.30
2023-02-15T07:05:06.330Z,3.80
2023-02-15T07:07:34.779Z,2.80
2023-02-15T07:10:04.072Z,4.60
2023-02-15T07:12:46.123Z,3.40
2023-02-15T07:15:17.017Z,4.40
2023-02-15T07:17:46.896Z,4.00
2023-02-15T07:20:17.819Z,4.70
2023-02-15T07:22:46.105Z,4.00
2023-02-15T07:25:14.506Z,3.30
2023-02-15T07:27:43.049Z,4.70
2023-02-15T07:30:12.818Z,3.50
2023-02-15T07:33:02.799Z,3.50
2023-02-15T07:35:33.684Z,3.90
2023-02-15T07:38:02.023Z,3.30
2023-02-15T07:40:30.991Z,3.70
2023-02-15T07:43:00.338Z,4.10
2023-02-15T07:45:28.714Z,5.00
2023-02-15T07:47:56.919Z,4.10
2023-02-15T07:50:25.448Z,3.00
2023-02-15T07:52:53.678Z,3.80
2023-02-15T07:55:21.866Z,3.50
2023-02-15T07:57:50.581Z,5.20
2023-02-15T08:00:21.416Z,4.20
2023-02-15T08:03:10.733Z,3.30
2023-02-15T08:05:42.194Z,5.30
2023-02-15T08:08:30.922Z,4.00
2023-02-15T08:11:29.873Z,4.00
2023-02-15T08:14:18.204Z,8.10
2023-02-15T08:16:48.418Z,3.90
2023-02-15T08:19:19.666Z,5.20
2023-02-15T08:21:49.843Z,8.30
2023-02-15T08:24:19.577Z,2.90
2023-02-15T08:26:48.971Z,5.10
2023-02-15T08:29:19.893Z,4.00
2023-02-15T08:31:48.535Z,8.40
2023-02-15T08:34:18.519Z,5.00
2023-02-15T08:36:46.995Z,4.20
2023-02-15T08:39:15.634Z,3.30
2023-02-15T08:41:45.430Z,5.40
2023-02-15T08:44:14.056Z,3.70
2023-02-15T08:46:43.556Z,4.10
2023-02-15T08:49:14.808Z,4.20
2023-02-15T08:51:43.419Z,3.70
2023-02-15T08:54:17.726Z,5.00
2023-02-15T08:56:46.209Z,4.30
2023-02-15T08:59:23.132Z,4.90
2023-02-15T09:01:52.742Z,3.70
2023-02-15T09:04:21.522Z,3.50
2023-02-15T09:06:50.195Z,4.60
2023-02-15T09:09:23.489Z,4.40
2023-02-15T09:11:57.642Z,4.60
2023-02-15T09:14:27.988Z,3.70
2023-02-15T09:16:57.216Z,3.70
2023-02-15T09:19:25.812Z,4.80
2023-02-15T09:21:55.002Z,4.00
2023-02-15T09:24:23.196Z,2.80
2023-02-15T09:26:54.505Z,3.10
2023-02-15T09:29:23.870Z,2.90
2023-02-15T09:31:52.087Z,3.40
2023-02-15T09:34:21.883Z,3.50
2023-02-15T09:36:50.326Z,4.00
2023-02-15T09:39:26.008Z,3.70
2023-02-15T09:41:56.744Z,6.30
2023-02-15T09:44:34.012Z,3.70
2023-02-15T09:47:14.331Z,4.00
2023-02-15T09:49:55.322Z,4.50
2023-02-15T09:52:42.689Z,4.40
2023-02-15T09:55:30.770Z,4.40
2023-02-15T09:58:03.865Z,3.30
2023-02-15T10:00:50.675Z,3.00
2023-02-15T10:03:43.752Z,3.40
2023-02-15T10:06:43.167Z,4.20
2023-02-15T10:09:25.107Z,3.80
2023-02-15T10:12:04.221Z,3.00
2023-02-15T10:14:39.081Z,3.80
2023-02-15T10:17:10.325Z,4.80
2023-02-15T10:20:12.378Z,3.90
2023-02-15T10:22:55.858Z,3.00
2023-02-15T10:25:33.254Z,3.20
2023-02-15T10:28:11.375Z,4.10
2023-02-15T10:30:52.806Z,5.50
2023-02-15T10:33:43.142Z,4.10
2023-02-15T10:36:22.204Z,2.70
2023-02-15T10:38:56.725Z,3.60
2023-02-15T10:41:40.346Z,2.90
2023-02-15T10:44:11.462Z,3.10
2023-02-15T10:46:53.831Z,3.00
2023-02-15T10:49:56.379Z,4.50
2023-02-15T10:52:34.616Z,3.50
2023-02-15T10:55:21.100Z,4.40
2023-02-15T10:58:00.356Z,4.00
2023-02-15T11:00:46.231Z,3.90
2023-02-15T11:03:48.860Z,5.00
2023-02-15T11:06:19.431Z,4.60
2023-02-15T11:08:51.117Z,3.80
2023-02-15T11:11:24.618Z,2.00
2023-02-15T11:14:05.705Z,4.20
2023-02-15T11:16:37.414Z,4.80
2023-02-15T11:19:14.243Z,4.00
2023-02-15T11:24:23.087Z,4.90
2023-02-15T11:27:25.224Z,4.10
2023-02-15T11:30:01.953Z,3.80
2023-02-15T11:32:38.750Z,2.70
2023-02-15T11:35:12.130Z,3.80
2023-02-15T11:37:52.150Z,3.00
2023-02-15T11:40:30.416Z,2.80
2023-02-15T11:43:27.486Z,2.80
2023-02-15T11:45:55.876Z,2.00
2023-02-15T11:48:24.305Z,2.10
2023-02-15T11:50:52.610Z,3.40
2023-02-15T11:53:22.681Z,4.70
2023-02-15T11:55:52.249Z,2.50
2023-02-15T11:58:23.124Z,2.50
2023-02-15T12:00:55.184Z,2.80
2023-02-15T12:03:29.712Z,3.80
2023-02-15T12:06:03.217Z,2.90
2023-02-15T12:08:41.709Z,5.50
2023-02-15T12:11:13.508Z,3.50
2023-02-15T12:14:00.606Z,5.10
2023-02-15T12:16:30.558Z,5.30
2023-02-15T12:19:00.307Z,3.80
2023-02-15T12:21:33.203Z,2.00
2023-02-15T12:24:05.136Z,2.40
2023-02-15T12:26:36.366Z,2.40
2023-02-15T12:29:18.068Z,2.40
2023-02-15T12:31:47.004Z,3.70
2023-02-15T12:34:28.290Z,4.40
2023-02-15T12:36:59.266Z,2.90
2023-02-15T12:39:28.816Z,2.30
2023-02-15T12:41:57.144Z,2.10
2023-02-15T12:44:27.927Z,3.20
2023-02-15T12:47:02.395Z,3.00
2023-02-15T12:49:38.054Z,2.10
2023-02-15T12:52:13.296Z,2.60
2023-02-15T12:54:43.500Z,2.30
2023-02-15T12:57:24.130Z,2.00
2023-02-15T13:00:12.758Z,2.80
2023-02-15T13:02:45.825Z,3.70
2023-02-15T13:06:36.465Z,2.90
2023-02-15T13:09:26.913Z,4.80
2023-02-15T13:11:55.142Z,2.80
2023-02-15T13:14:25.699Z,2.30
2023-02-15T13:16:54.498Z,3.30
2023-02-15T13:22:25.573Z,3.00
2023-02-15T13:24:57.065Z,3.00
2023-02-15T13:27:31.544Z,6.60
2023-02-15T13:30:01.985Z,3.80
2023-02-15T13:32:39.335Z,2.40
2023-02-15T13:35:11.311Z,3.40
2023-02-15T13:37:58.423Z,5.50
2023-02-15T13:40:47.651Z,3.50
2023-02-15T13:43:18.848Z,2.80
2023-02-15T13:46:05.768Z,3.50
2023-02-15T13:48:52.661Z,2.80
2023-02-15T13:57:02.251Z,2.00
2023-02-15T13:59:41.696Z,1.80
2023-02-15T14:02:13.547Z,4.00
2023-02-15T14:04:46.858Z,2.00
2023-02-15T14:07:48.554Z,2.40
2023-02-15T14:10:38.579Z,1.80
2023-02-15T14:13:32.778Z,2.00
2023-02-15T14:16:30.201Z,2.20
2023-02-15T14:19:42.440Z,3.50
2023-02-15T14:22:16.801Z,2.00
2023-02-15T14:24:46.704Z,2.10
2023-02-15T14:27:17.632Z,2.70
2023-02-15T14:29:50.578Z,2.40
2023-02-15T14:32:25.128Z,3.60
2023-02-15T14:34:55.266Z,2.10
2023-02-15T14:37:32.124Z,1.50
2023-02-15T14:40:48.091Z,1.40
2023-02-15T14:43:29.082Z,2.90
2023-02-15T14:46:00.276Z,3.10
2023-02-15T14:48:42.672Z,2.90
2023-02-15T14:51:11.374Z,2.90
2023-02-15T14:53:40.404Z,3.10
2023-02-15T14:56:11.358Z,2.70
2023-02-15T14:58:39.596Z,4.90
2023-02-15T15:01:09.038Z,2.50
2023-02-15T15:03:37.898Z,2.20
2023-02-15T15:06:06.806Z,3.10
2023-02-15T15:08:38.580Z,3.50
2023-02-15T15:11:41.095Z,4.00
2023-02-15T15:14:37.949Z,3.50
2023-02-15T15:17:06.817Z,3.10
2023-02-15T15:19:52.172Z,4.00
2023-02-15T15:22:22.890Z,5.50
2023-02-15T15:24:58.218Z,5.30
2023-02-15T15:27:56.192Z,5.80
2023-02-15T15:30:31.870Z,5.80
2023-02-15T15:33:04.369Z,7.60
2023-02-15T15:35:37.261Z,6.60
2023-02-15T15:38:39.240Z,6.70
2023-02-15T15:41:21.218Z,4.50
2023-02-15T15:44:08.177Z,4.90
2023-02-15T15:47:05.028Z,5.30
2023-02-15T15:49:34.011Z,4.10
2023-02-15T15:52:03.137Z,3.40
2023-02-15T15:54:31.767Z,3.60
2023-02-15T15:57:02.489Z,4.00
2023-02-15T15:59:32.407Z,3.90
2023-02-15T16:02:07.982Z,4.00
2023-02-15T16:04:36.692Z,3.40
2023-02-15T16:07:17.343Z,5.10
2023-02-15T16:10:04.342Z,4.10
2023-02-15T16:12:37.096Z,6.90
2023-02-15T16:15:50.734Z,6.20
2023-02-15T16:18:22.150Z,8.00
2023-02-15T16:20:54.415Z,10.00
2023-02-15T16:23:48.307Z,9.40
2023-02-15T16:26:44.460Z,8.60
2023-02-15T16:29:18.012Z,7.20
2023-02-15T16:32:06.983Z,7.90
2023-02-15T16:34:38.160Z,11.10
2023-02-15T16:37:19.681Z,10.10
2023-02-15T16:39:51.308Z,9.30
2023-02-15T16:42:19.902Z,7.90
2023-02-15T16:44:53.587Z,5.50
2023-02-15T16:47:29.593Z,6.30
2023-02-15T16:52:27.685Z,3.10
2023-02-15T16:55:00.175Z,2.90
2023-02-15T16:57:32.087Z,3.50
2023-02-15T17:00:06.344Z,4.90
2023-02-15T17:02:55.066Z,7.00
2023-02-15T17:05:23.691Z,8.70
2023-02-15T17:08:44.825Z,5.90
2023-02-15T17:11:18.555Z,5.30
2023-02-15T17:14:12.465Z,6.10
2023-02-15T17:16:50.599Z,5.90
2023-02-15T17:19:33.920Z,5.60
2023-02-15T17:22:07.654Z,5.10
2023-02-15T17:24:39.552Z,6.20
2023-02-15T17:27:22.339Z,4.60
2023-02-15T17:30:02.384Z,5.10
2023-02-15T17:32:32.700Z,5.20
2023-02-15T17:35:04.202Z,6.20
2023-02-15T17:37:39.304Z,7.00
2023-02-15T17:40:30.109Z,6.40
2023-02-15T17:42:58.658Z,5.70
2023-02-15T17:45:32.271Z,7.30
2023-02-15T17:48:02.264Z,6.80
2023-02-15T17:50:31.894Z,7.50
2023-02-15T17:53:01.857Z,8.90
2023-02-15T17:55:36.749Z,6.80
2023-02-15T17:58:15.972Z,9.00
2023-02-15T18:01:05.508Z,4.40
2023-02-15T18:04:07.531Z,5.70
2023-02-15T18:06:55.991Z,8.20
2023-02-15T18:09:43.441Z,10.80
2023-02-15T18:12:18.575Z,12.30
2023-02-15T18:14:47.619Z,13.50
2023-02-15T18:17:18.001Z,13.60
2023-02-15T18:19:46.397Z,13.00
2023-02-15T18:22:19.390Z,11.20
2023-02-15T18:24:48.809Z,9.00
2023-02-15T18:27:17.210Z,8.00
2023-02-15T18:29:46.592Z,7.90
2023-02-15T18:32:18.045Z,8.80
2023-02-15T18:34:46.407Z,14.60
2023-02-15T18:37:20.097Z,13.90
2023-02-15T18:39:54.536Z,14.80
2023-02-15T18:42:36.746Z,11.90
2023-02-15T18:45:13.678Z,14.60
2023-02-15T18:47:42.812Z,16.00
2023-02-15T18:50:12.757Z,13.10
2023-02-15T18:52:40.963Z,11.90
2023-02-15T18:55:19.765Z,9.60
2023-02-15T18:57:48.929Z,7.70
2023-02-15T19:00:22.509Z,6.70
2023-02-15T19:02:51.919Z,5.30
2023-02-15T19:05:20.301Z,4.50
2023-02-15T19:07:48.775Z,4.40
2023-02-15T19:10:23.219Z,6.00
2023-02-15T19:12:51.713Z,5.10
2023-02-15T19:15:33.127Z,7.80
2023-02-15T19:18:02.669Z,11.50
2023-02-15T19:20:36.322Z,9.20
2023-02-15T19:23:07.467Z,16.20
2023-02-15T19:25:38.286Z,14.40
2023-02-15T19:28:14.378Z,16.30
2023-02-15T19:30:42.699Z,12.40
2023-02-15T19:33:19.748Z,12.70
2023-02-15T19:35:54.607Z,7.30
2023-02-15T19:38:42.174Z,7.00
2023-02-15T19:41:19.988Z,10.80
2023-02-15T19:43:53.618Z,8.80
2023-02-15T19:46:23.450Z,8.80
2023-02-15T19:48:52.720Z,12.10
2023-02-15T19:51:22.506Z,12.30
2023-02-15T19:53:51.798Z,12.20
2023-02-15T19:56:24.191Z,11.30
2023-02-15T19:58:52.330Z,8.50
2023-02-15T20:01:22.612Z,8.20
2023-02-15T20:03:52.549Z,8.00
2023-02-15T20:06:21.273Z,9.70
2023-02-15T20:08:51.307Z,9.90
2023-02-15T20:11:19.824Z,10.40
2023-02-15T20:13:50.510Z,12.70
2023-02-15T20:16:18.983Z,13.80
2023-02-15T20:18:47.386Z,15.20
2023-02-15T20:21:16.394Z,14.00
2023-02-15T20:23:46.181Z,14.30
2023-02-15T20:26:18.536Z,12.90
2023-02-15T20:28:47.570Z,15.40
2023-02-15T20:31:16.837Z,14.10
2023-02-15T20:33:46.317Z,15.10
2023-02-15T20:36:19.844Z,14.00
2023-02-15T20:38:48.372Z,14.10
2023-02-15T20:41:38.964Z,10.70
2023-02-15T20:44:27.645Z,8.90
2023-02-15T20:46:57.632Z,8.70
2023-02-15T20:49:27.271Z,8.80
2023-02-15T20:51:56.308Z,7.00
2023-02-15T20:54:26.595Z,6.80
2023-02-15T20:56:54.822Z,6.00
2023-02-15T20:59:33.345Z,4.80
2023-02-15T21:02:05.682Z,5.40
2023-02-15T21:04:34.446Z,7.80
2023-02-15T21:07:02.636Z,6.00
2023-02-15T21:09:31.111Z,5.90
2023-02-15T21:12:00.055Z,6.20
2023-02-15T21:14:28.288Z,10.60
2023-02-15T21:16:57.198Z,10.30
2023-02-15T21:19:27.581Z,11.20
2023-02-15T21:21:56.359Z,10.10
2023-02-15T21:24:27.214Z,12.30
2023-02-15T21:26:56.105Z,8.70
2023-02-15T21:29:26.320Z,7.60
2023-02-15T21:31:54.869Z,8.80
2023-02-15T21:34:23.227Z,11.90
2023-02-15T21:36:51.872Z,9.80
2023-02-15T21:39:24.049Z,6.70
2023-02-15T21:42:12.314Z,11.50
2023-02-15T21:45:19.094Z,7.80
2023-02-15T21:47:53.183Z,6.40
2023-02-15T21:50:41.993Z,7.70
2023-02-15T21:53:12.040Z,8.60
2023-02-15T21:55:40.383Z,7.50
2023-02-15T21:58:15.771Z,7.10
2023-02-15T22:00:44.029Z,8.90
2023-02-15T22:03:12.325Z,7.00
2023-02-15T22:05:40.862Z,6.20
2023-02-15T22:08:13.373Z,7.40
2023-02-15T22:10:43.994Z,5.30
2023-02-15T22:13:16.609Z,5.80
2023-02-15T22:15:46.750Z,6.70
2023-02-15T22:18:20.858Z,8.60
2023-02-15T22:20:49.304Z,6.90
2023-02-15T22:23:18.345Z,7.20
2023-02-15T22:25:56.650Z,6.20
2023-02-15T22:28:34.017Z,8.90
2023-02-15T22:31:03.500Z,6.80
2023-02-15T22:33:33.776Z,7.30
2023-02-15T22:36:05.292Z,8.40
2023-02-15T22:38:33.686Z,17.00
2023-02-15T22:41:06.600Z,16.30
2023-02-15T22:43:39.571Z,17.20
2023-02-15T22:46:11.209Z,14.90
2023-02-15T22:48:39.803Z,20.70
2023-02-15T22:51:13.873Z,17.30
2023-02-15T22:53:42.250Z,16.20
2023-02-15T22:56:37.489Z,15.80
2023-02-15T22:59:07.772Z,14.20
2023-02-15T23:01:36.787Z,15.40
2023-02-15T23:04:05.236Z,15.70
2023-02-15T23:06:34.638Z,12.80
2023-02-15T23:09:03.012Z,12.90
2023-02-15T23:11:31.166Z,13.70
2023-02-15T23:13:59.735Z,10.10
2023-02-15T23:16:28.150Z,9.60
2023-02-15T23:18:57.627Z,14.30
2023-02-15T23:21:28.606Z,14.60
2023-02-15T23:24:20.798Z,12.90
2023-02-15T23:26:49.139Z,16.00
2023-02-15T23:29:23.828Z,17.40
2023-02-15T23:31:53.164Z,15.10
2023-02-15T23:34:27.093Z,10.40
2023-02-15T23:36:55.692Z,9.30
2023-02-15T23:39:46.370Z,9.60
2023-02-15T23:42:20.197Z,11.30
2023-02-15T23:47:48.534Z,8.20
2023-02-15T23:50:29.448Z,8.90
2023-02-15T23:52:57.951Z,9.20
2023-02-15T23:55:34.129Z,11.30
2023-02-15T23:58:03.624Z,11.50
